sensor_id;sensor_type;location;lat;lon;timestamp;temperature;humidity
36790;DHT22;22740;52.182;8.780;2023-05-14T00:00:24;13.50;99.90
36790;DHT22;22740;52.182;8.780;2023-05-14T00:06:28;12.80;99.90
36790;DHT22;22740;52.182;8.780;2023-05-14T00:12:31;12.60;99.90
36790;DHT22;22740;52.182;8.780;2023-05-14T00:18:34;12.70;99.90
36790;DHT22;22740;52.182;8.780;2023-05-14T00:24:37;12.90;99.90
36790;DHT22;22740;52.182;8.780;2023-05-14T00:30:41;12.80;99.90
36790;DHT22;22740;52.182;8.780;2023-05-14T00:36:44;12.70;99.90
36790;DHT22;22740;52.182;8.780;2023-05-14T00:42:48;13.00;99.90
36790;DHT22;22740;52.182;8.780;2023-05-14T00:48:52;13.20;99.90
36790;DHT22;22740;52.182;8.780;2023-05-14T00:54:56;13.10;99.90
36790;DHT22;22740;52.182;8.780;2023-05-14T01:00:59;13.20;99.90
36790;DHT22;22740;52.182;8.780;2023-05-14T01:07:20;13.10;99.90
36790;DHT22;22740;52.182;8.780;2023-05-14T01:13:40;12.90;99.90
36790;DHT22;22740;52.182;8.780;2023-05-14T01:19:47;12.40;99.90
36790;DHT22;22740;52.182;8.780;2023-05-14T01:25:50;12.20;99.90
36790;DHT22;22740;52.182;8.780;2023-05-14T01:31:59;12.10;99.90
36790;DHT22;22740;52.182;8.780;2023-05-14T01:38:08;12.40;99.90
36790;DHT22;22740;52.182;8.780;2023-05-14T01:44:12;12.30;99.90
36790;DHT22;22740;52.182;8.780;2023-05-14T01:50:17;12.30;99.90
36790;DHT22;22740;52.182;8.780;2023-05-14T01:56:22;12.30;99.90
36790;DHT22;22740;52.182;8.780;2023-05-14T02:02:25;12.10;99.90
36790;DHT22;22740;52.182;8.780;2023-05-14T02:08:28;12.20;99.90
36790;DHT22;22740;52.182;8.780;2023-05-14T02:14:32;12.40;99.90
36790;DHT22;22740;52.182;8.780;2023-05-14T02:20:36;11.80;99.90
36790;DHT22;22740;52.182;8.780;2023-05-14T02:26:40;11.50;99.90
36790;DHT22;22740;52.182;8.780;2023-05-14T02:32:48;11.30;99.90
36790;DHT22;22740;52.182;8.780;2023-05-14T02:38:52;11.50;99.90
36790;DHT22;22740;52.182;8.780;2023-05-14T02:44:56;11.50;99.90
36790;DHT22;22740;52.182;8.780;2023-05-14T02:51:04;11.80;99.90
36790;DHT22;22740;52.182;8.780;2023-05-14T02:57:06;11.90;99.90
36790;DHT22;22740;52.182;8.780;2023-05-14T03:03:10;11.70;99.90
36790;DHT22;22740;52.182;8.780;2023-05-14T03:09:14;11.60;99.90
36790;DHT22;22740;52.182;8.780;2023-05-14T03:15:17;11.70;99.90
36790;DHT22;22740;52.182;8.780;2023-05-14T03:21:20;11.70;99.90
36790;DHT22;22740;52.182;8.780;2023-05-14T03:27:23;11.60;99.90
36790;DHT22;22740;52.182;8.780;2023-05-14T03:33:27;11.70;99.90
36790;DHT22;22740;52.182;8.780;2023-05-14T03:39:30;11.40;99.90
36790;DHT22;22740;52.182;8.780;2023-05-14T03:45:34;11.30;99.90
36790;DHT22;22740;52.182;8.780;2023-05-14T03:51:37;11.50;99.90
36790;DHT22;22740;52.182;8.780;2023-05-14T03:57:41;11.40;99.90
36790;DHT22;22740;52.182;8.780;2023-05-14T04:03:46;12.00;99.90
36790;DHT22;22740;52.182;8.780;2023-05-14T04:09:50;13.60;99.90
36790;DHT22;22740;52.182;8.780;2023-05-14T04:15:54;15.20;99.90
36790;DHT22;22740;52.182;8.780;2023-05-14T04:21:58;16.50;99.90
36790;DHT22;22740;52.182;8.780;2023-05-14T04:28:01;17.50;99.90
36790;DHT22;22740;52.182;8.780;2023-05-14T04:34:04;17.40;99.90
36790;DHT22;22740;52.182;8.780;2023-05-14T04:40:09;16.00;99.90
36790;DHT22;22740;52.182;8.780;2023-05-14T04:46:14;15.00;99.90
36790;DHT22;22740;52.182;8.780;2023-05-14T04:52:19;15.40;99.90
36790;DHT22;22740;52.182;8.780;2023-05-14T04:58:22;16.30;99.90
36790;DHT22;22740;52.182;8.780;2023-05-14T05:04:26;18.10;99.90
36790;DHT22;22740;52.182;8.780;2023-05-14T05:10:29;17.90;99.90
36790;DHT22;22740;52.182;8.780;2023-05-14T05:16:34;17.90;99.90
36790;DHT22;22740;52.182;8.780;2023-05-14T05:22:37;17.00;99.90
36790;DHT22;22740;52.182;8.780;2023-05-14T05:28:41;16.40;99.90
36790;DHT22;22740;52.182;8.780;2023-05-14T05:34:45;16.40;99.90
36790;DHT22;22740;52.182;8.780;2023-05-14T05:40:48;16.50;99.90
36790;DHT22;22740;52.182;8.780;2023-05-14T05:46:54;16.20;99.90
36790;DHT22;22740;52.182;8.780;2023-05-14T05:52:59;16.20;99.90
36790;DHT22;22740;52.182;8.780;2023-05-14T05:59:04;16.10;99.90
36790;DHT22;22740;52.182;8.780;2023-05-14T06:05:09;16.00;99.90
36790;DHT22;22740;52.182;8.780;2023-05-14T06:11:13;16.00;99.90
36790;DHT22;22740;52.182;8.780;2023-05-14T06:17:16;16.10;99.90
36790;DHT22;22740;52.182;8.780;2023-05-14T06:23:20;16.20;99.90
36790;DHT22;22740;52.182;8.780;2023-05-14T06:29:23;16.20;99.90
36790;DHT22;22740;52.182;8.780;2023-05-14T06:35:27;16.50;99.90
36790;DHT22;22740;52.182;8.780;2023-05-14T06:41:33;16.80;99.90
36790;DHT22;22740;52.182;8.780;2023-05-14T06:47:38;16.60;99.90
36790;DHT22;22740;52.182;8.780;2023-05-14T06:53:44;17.00;99.90
36790;DHT22;22740;52.182;8.780;2023-05-14T06:59:50;17.20;99.90
36790;DHT22;22740;52.182;8.780;2023-05-14T07:05:53;17.10;99.90
36790;DHT22;22740;52.182;8.780;2023-05-14T07:11:57;17.10;99.90
36790;DHT22;22740;52.182;8.780;2023-05-14T07:18:01;17.30;99.90
36790;DHT22;22740;52.182;8.780;2023-05-14T07:24:04;16.90;99.90
36790;DHT22;22740;52.182;8.780;2023-05-14T07:30:07;16.80;99.90
36790;DHT22;22740;52.182;8.780;2023-05-14T07:36:11;16.70;99.90
36790;DHT22;22740;52.182;8.780;2023-05-14T07:42:18;16.60;99.90
36790;DHT22;22740;52.182;8.780;2023-05-14T07:48:37;16.40;99.90
36790;DHT22;22740;52.182;8.780;2023-05-14T07:54:41;16.30;99.90
36790;DHT22;22740;52.182;8.780;2023-05-14T08:00:46;16.60;99.90
36790;DHT22;22740;52.182;8.780;2023-05-14T08:06:49;16.70;99.90
36790;DHT22;22740;52.182;8.780;2023-05-14T08:12:53;16.70;99.90
36790;DHT22;22740;52.182;8.780;2023-05-14T08:18:56;16.80;99.90
36790;DHT22;22740;52.182;8.780;2023-05-14T08:25:00;17.00;99.90
36790;DHT22;22740;52.182;8.780;2023-05-14T08:31:07;17.20;99.90
36790;DHT22;22740;52.182;8.780;2023-05-14T08:37:10;17.40;99.90
36790;DHT22;22740;52.182;8.780;2023-05-14T08:43:15;17.70;99.90
36790;DHT22;22740;52.182;8.780;2023-05-14T08:49:42;18.00;99.90
36790;DHT22;22740;52.182;8.780;2023-05-14T08:55:48;18.10;99.90
36790;DHT22;22740;52.182;8.780;2023-05-14T09:01:57;17.90;99.90
36790;DHT22;22740;52.182;8.780;2023-05-14T09:08:04;18.80;99.90
36790;DHT22;22740;52.182;8.780;2023-05-14T09:14:12;18.80;99.90
36790;DHT22;22740;52.182;8.780;2023-05-14T09:20:15;19.30;99.90
36790;DHT22;22740;52.182;8.780;2023-05-14T09:26:21;19.60;99.90
36790;DHT22;22740;52.182;8.780;2023-05-14T09:32:26;19.50;99.90
36790;DHT22;22740;52.182;8.780;2023-05-14T09:38:32;19.40;99.90
36790;DHT22;22740;52.182;8.780;2023-05-14T09:44:36;19.00;99.90
36790;DHT22;22740;52.182;8.780;2023-05-14T09:50:45;19.30;99.90
36790;DHT22;22740;52.182;8.780;2023-05-14T09:56:48;20.00;99.90
36790;DHT22;22740;52.182;8.780;2023-05-14T10:02:52;20.50;99.90
36790;DHT22;22740;52.182;8.780;2023-05-14T10:08:59;20.20;99.90
36790;DHT22;22740;52.182;8.780;2023-05-14T10:15:15;20.50;99.90
36790;DHT22;22740;52.182;8.780;2023-05-14T10:21:22;21.10;99.90
36790;DHT22;22740;52.182;8.780;2023-05-14T10:27:25;22.00;99.90
36790;DHT22;22740;52.182;8.780;2023-05-14T10:33:29;21.60;99.90
36790;DHT22;22740;52.182;8.780;2023-05-14T10:39:40;22.10;99.90
36790;DHT22;22740;52.182;8.780;2023-05-14T10:45:45;20.90;99.90
36790;DHT22;22740;52.182;8.780;2023-05-14T10:51:52;21.90;99.90
36790;DHT22;22740;52.182;8.780;2023-05-14T10:57:58;22.50;99.90
36790;DHT22;22740;52.182;8.780;2023-05-14T11:04:03;22.60;99.90
36790;DHT22;22740;52.182;8.780;2023-05-14T11:10:08;22.60;99.90
36790;DHT22;22740;52.182;8.780;2023-05-14T11:16:12;22.60;99.90
36790;DHT22;22740;52.182;8.780;2023-05-14T11:22:25;22.50;99.90
36790;DHT22;22740;52.182;8.780;2023-05-14T11:28:28;22.20;99.90
36790;DHT22;22740;52.182;8.780;2023-05-14T11:34:33;19.80;99.90
36790;DHT22;22740;52.182;8.780;2023-05-14T11:40:38;19.00;99.90
36790;DHT22;22740;52.182;8.780;2023-05-14T11:46:56;18.90;99.90
36790;DHT22;22740;52.182;8.780;2023-05-14T11:53:01;19.70;99.90
36790;DHT22;22740;52.182;8.780;2023-05-14T11:59:04;19.80;99.90
36790;DHT22;22740;52.182;8.780;2023-05-14T12:05:12;20.20;99.90
36790;DHT22;22740;52.182;8.780;2023-05-14T12:11:20;20.60;99.90
36790;DHT22;22740;52.182;8.780;2023-05-14T12:17:26;20.30;99.90
36790;DHT22;22740;52.182;8.780;2023-05-14T12:23:32;20.10;99.90
36790;DHT22;22740;52.182;8.780;2023-05-14T12:29:37;21.00;99.90
36790;DHT22;22740;52.182;8.780;2023-05-14T12:35:43;21.60;99.90
36790;DHT22;22740;52.182;8.780;2023-05-14T12:41:46;21.30;99.90
36790;DHT22;22740;52.182;8.780;2023-05-14T12:47:50;21.60;99.90
36790;DHT22;22740;52.182;8.780;2023-05-14T12:53:54;20.90;99.90
36790;DHT22;22740;52.182;8.780;2023-05-14T12:59:58;19.70;99.90
36790;DHT22;22740;52.182;8.780;2023-05-14T13:06:01;19.00;99.90
36790;DHT22;22740;52.182;8.780;2023-05-14T13:12:04;18.70;99.90
36790;DHT22;22740;52.182;8.780;2023-05-14T13:18:09;18.60;99.90
36790;DHT22;22740;52.182;8.780;2023-05-14T13:24:13;18.50;99.90
36790;DHT22;22740;52.182;8.780;2023-05-14T13:30:17;18.60;99.90
36790;DHT22;22740;52.182;8.780;2023-05-14T13:36:21;18.60;99.90
36790;DHT22;22740;52.182;8.780;2023-05-14T13:42:25;19.20;99.90
36790;DHT22;22740;52.182;8.780;2023-05-14T13:48:29;20.40;99.90
36790;DHT22;22740;52.182;8.780;2023-05-14T13:54:33;21.00;99.90
36790;DHT22;22740;52.182;8.780;2023-05-14T14:00:37;20.70;99.90
36790;DHT22;22740;52.182;8.780;2023-05-14T14:06:40;21.10;99.90
36790;DHT22;22740;52.182;8.780;2023-05-14T14:12:44;20.10;99.90
36790;DHT22;22740;52.182;8.780;2023-05-14T14:18:46;19.90;99.90
36790;DHT22;22740;52.182;8.780;2023-05-14T14:24:50;19.70;99.90
36790;DHT22;22740;52.182;8.780;2023-05-14T14:30:53;19.50;99.90
36790;DHT22;22740;52.182;8.780;2023-05-14T14:36:56;19.50;99.90
36790;DHT22;22740;52.182;8.780;2023-05-14T14:42:59;19.40;99.90
36790;DHT22;22740;52.182;8.780;2023-05-14T14:49:04;19.40;99.90
36790;DHT22;22740;52.182;8.780;2023-05-14T14:55:08;19.40;99.90
36790;DHT22;22740;52.182;8.780;2023-05-14T15:01:11;20.40;99.90
36790;DHT22;22740;52.182;8.780;2023-05-14T15:07:16;20.50;99.90
36790;DHT22;22740;52.182;8.780;2023-05-14T15:13:21;20.70;99.90
36790;DHT22;22740;52.182;8.780;2023-05-14T15:19:26;20.60;99.90
36790;DHT22;22740;52.182;8.780;2023-05-14T15:25:28;20.80;99.90
36790;DHT22;22740;52.182;8.780;2023-05-14T15:31:32;21.00;99.90
36790;DHT22;22740;52.182;8.780;2023-05-14T15:37:43;20.70;99.90
36790;DHT22;22740;52.182;8.780;2023-05-14T15:43:50;20.70;99.90
36790;DHT22;22740;52.182;8.780;2023-05-14T15:49:52;20.40;99.90
36790;DHT22;22740;52.182;8.780;2023-05-14T15:55:56;20.60;99.90
36790;DHT22;22740;52.182;8.780;2023-05-14T16:01:59;20.80;99.90
36790;DHT22;22740;52.182;8.780;2023-05-14T16:08:02;21.00;99.90
36790;DHT22;22740;52.182;8.780;2023-05-14T16:14:07;21.10;99.90
36790;DHT22;22740;52.182;8.780;2023-05-14T16:20:11;21.20;99.90
36790;DHT22;22740;52.182;8.780;2023-05-14T16:26:14;21.00;99.90
36790;DHT22;22740;52.182;8.780;2023-05-14T16:32:19;21.20;99.90
36790;DHT22;22740;52.182;8.780;2023-05-14T16:38:23;21.50;99.90
36790;DHT22;22740;52.182;8.780;2023-05-14T16:44:26;21.90;99.90
36790;DHT22;22740;52.182;8.780;2023-05-14T16:50:29;21.50;99.90
36790;DHT22;22740;52.182;8.780;2023-05-14T16:56:32;20.90;99.90
36790;DHT22;22740;52.182;8.780;2023-05-14T17:02:38;20.30;99.90
36790;DHT22;22740;52.182;8.780;2023-05-14T17:08:42;19.40;99.90
36790;DHT22;22740;52.182;8.780;2023-05-14T17:14:45;19.00;99.90
36790;DHT22;22740;52.182;8.780;2023-05-14T17:20:49;18.70;99.90
36790;DHT22;22740;52.182;8.780;2023-05-14T17:26:55;18.30;99.90
36790;DHT22;22740;52.182;8.780;2023-05-14T17:33:00;18.20;99.90
36790;DHT22;22740;52.182;8.780;2023-05-14T17:39:07;18.10;99.90
36790;DHT22;22740;52.182;8.780;2023-05-14T17:45:12;18.20;99.90
36790;DHT22;22740;52.182;8.780;2023-05-14T17:51:17;18.00;99.90
36790;DHT22;22740;52.182;8.780;2023-05-14T17:57:20;17.80;99.90
36790;DHT22;22740;52.182;8.780;2023-05-14T18:03:24;17.80;99.90
36790;DHT22;22740;52.182;8.780;2023-05-14T18:09:28;17.70;99.90
36790;DHT22;22740;52.182;8.780;2023-05-14T18:15:34;17.90;99.90
36790;DHT22;22740;52.182;8.780;2023-05-14T18:21:41;18.00;99.90
36790;DHT22;22740;52.182;8.780;2023-05-14T18:27:46;17.80;99.90
36790;DHT22;22740;52.182;8.780;2023-05-14T18:33:54;17.70;99.90
36790;DHT22;22740;52.182;8.780;2023-05-14T18:39:59;17.50;99.90
36790;DHT22;22740;52.182;8.780;2023-05-14T18:46:04;17.00;99.90
36790;DHT22;22740;52.182;8.780;2023-05-14T18:52:09;16.70;99.90
36790;DHT22;22740;52.182;8.780;2023-05-14T18:58:13;16.70;99.90
36790;DHT22;22740;52.182;8.780;2023-05-14T19:04:17;17.00;99.90
36790;DHT22;22740;52.182;8.780;2023-05-14T19:10:22;17.00;99.90
36790;DHT22;22740;52.182;8.780;2023-05-14T19:16:27;16.90;99.90
36790;DHT22;22740;52.182;8.780;2023-05-14T19:22:31;16.80;99.90
36790;DHT22;22740;52.182;8.780;2023-05-14T19:28:36;16.70;99.90
36790;DHT22;22740;52.182;8.780;2023-05-14T19:34:44;16.50;99.90
36790;DHT22;22740;52.182;8.780;2023-05-14T19:40:50;16.10;99.90
36790;DHT22;22740;52.182;8.780;2023-05-14T19:46:58;16.00;99.90
36790;DHT22;22740;52.182;8.780;2023-05-14T19:53:04;15.80;99.90
36790;DHT22;22740;52.182;8.780;2023-05-14T19:59:09;16.00;99.90
36790;DHT22;22740;52.182;8.780;2023-05-14T20:05:15;16.00;99.90
36790;DHT22;22740;52.182;8.780;2023-05-14T20:11:21;16.10;99.90
36790;DHT22;22740;52.182;8.780;2023-05-14T20:17:24;16.00;99.90
36790;DHT22;22740;52.182;8.780;2023-05-14T20:23:27;15.90;99.90
36790;DHT22;22740;52.182;8.780;2023-05-14T20:29:30;15.70;99.90
36790;DHT22;22740;52.182;8.780;2023-05-14T20:35:33;15.70;99.90
36790;DHT22;22740;52.182;8.780;2023-05-14T20:41:36;15.40;99.90
36790;DHT22;22740;52.182;8.780;2023-05-14T20:47:40;15.50;99.90
36790;DHT22;22740;52.182;8.780;2023-05-14T20:53:43;15.40;99.90
36790;DHT22;22740;52.182;8.780;2023-05-14T20:59:47;15.40;99.90
36790;DHT22;22740;52.182;8.780;2023-05-14T21:05:51;15.40;99.90
36790;DHT22;22740;52.182;8.780;2023-05-14T21:11:54;15.40;99.90
36790;DHT22;22740;52.182;8.780;2023-05-14T21:17:58;15.20;99.90
36790;DHT22;22740;52.182;8.780;2023-05-14T21:24:02;15.00;99.90
36790;DHT22;22740;52.182;8.780;2023-05-14T21:30:06;14.80;99.90
36790;DHT22;22740;52.182;8.780;2023-05-14T21:36:10;14.70;99.90
36790;DHT22;22740;52.182;8.780;2023-05-14T21:42:17;14.70;99.90
36790;DHT22;22740;52.182;8.780;2023-05-14T21:48:23;14.80;99.90
36790;DHT22;22740;52.182;8.780;2023-05-14T21:54:26;14.70;99.90
36790;DHT22;22740;52.182;8.780;2023-05-14T22:00:30;14.60;99.90
36790;DHT22;22740;52.182;8.780;2023-05-14T22:06:34;14.50;99.90
36790;DHT22;22740;52.182;8.780;2023-05-14T22:12:39;14.30;99.90
36790;DHT22;22740;52.182;8.780;2023-05-14T22:18:42;14.20;99.90
36790;DHT22;22740;52.182;8.780;2023-05-14T22:24:46;14.30;99.90
36790;DHT22;22740;52.182;8.780;2023-05-14T22:30:48;14.10;99.90
36790;DHT22;22740;52.182;8.780;2023-05-14T22:36:52;14.10;99.90
36790;DHT22;22740;52.182;8.780;2023-05-14T22:42:56;14.10;99.90
36790;DHT22;22740;52.182;8.780;2023-05-14T22:49:00;14.20;99.90
36790;DHT22;22740;52.182;8.780;2023-05-14T22:55:03;14.10;99.90
36790;DHT22;22740;52.182;8.780;2023-05-14T23:01:06;14.10;99.90
36790;DHT22;22740;52.182;8.780;2023-05-14T23:07:10;14.00;99.90
36790;DHT22;22740;52.182;8.780;2023-05-14T23:13:14;13.80;99.90
36790;DHT22;22740;52.182;8.780;2023-05-14T23:19:18;13.90;99.90
36790;DHT22;22740;52.182;8.780;2023-05-14T23:25:22;13.80;99.90
36790;DHT22;22740;52.182;8.780;2023-05-14T23:31:27;13.40;99.90
36790;DHT22;22740;52.182;8.780;2023-05-14T23:37:30;13.50;99.90
36790;DHT22;22740;52.182;8.780;2023-05-14T23:43:36;13.50;99.90
36790;DHT22;22740;52.182;8.780;2023-05-14T23:49:39;13.50;99.90
36790;DHT22;22740;52.182;8.780;2023-05-14T23:55:42;13.60;99.90
